Time;durP1;ratioP1;P1;durP2;ratioP2;P2;SDS_P1;SDS_P2;PMS_P1;PMS_P2;Temp;Humidity;BMP_temperature;BMP_pressure;BME280_temperature;BME280_humidity;BME280_pressure;Samples;Min_cycle;Max_cycle;Signal;HPM_P1;HPM_P2
2023/06/28 00:01:27;;;;;;;6.37;3.20;;;16.80;99.90;;;;;;5014954;28;20191;-82
2023/06/28 00:03:54;;;;;;;4.68;3.00;;;16.80;99.90;;;;;;5014547;28;20202;-86
2023/06/28 00:06:23;;;;;;;5.25;2.75;;;16.90;99.90;;;;;;5014921;28;20223;-90
2023/06/28 00:08:49;;;;;;;6.68;3.00;;;16.90;99.90;;;;;;5016134;28;20207;-88
2023/06/28 00:11:16;;;;;;;4.63;2.83;;;16.80;99.90;;;;;;5014884;28;20664;-88
2023/06/28 00:13:43;;;;;;;5.47;3.08;;;16.90;99.90;;;;;;5014740;28;20227;-84
2023/06/28 00:16:10;;;;;;;5.72;2.90;;;16.80;99.90;;;;;;5014919;28;20223;-82
2023/06/28 00:18:37;;;;;;;11.70;3.65;;;16.90;99.90;;;;;;5014534;28;20206;-85
2023/06/28 00:21:04;;;;;;;4.22;2.90;;;16.90;99.90;;;;;;5014481;28;20199;-85
2023/06/28 00:23:33;;;;;;;4.00;2.70;;;16.80;99.90;;;;;;5014226;28;20199;-84
2023/06/28 00:25:59;;;;;;;7.97;2.83;;;16.80;99.90;;;;;;5014128;28;20231;-85
2023/06/28 00:28:26;;;;;;;5.13;2.73;;;16.80;99.90;;;;;;5013768;28;20622;-83
2023/06/28 00:30:53;;;;;;;5.10;3.55;;;16.80;99.90;;;;;;5014203;28;20238;-81
2023/06/28 00:33:20;;;;;;;6.60;3.05;;;16.80;99.90;;;;;;5014275;28;20494;-85
2023/06/28 00:35:48;;;;;;;6.88;3.22;;;16.80;99.90;;;;;;5013626;28;20226;-84
2023/06/28 00:38:14;;;;;;;5.00;2.63;;;16.80;99.90;;;;;;5015607;28;20223;-83
2023/06/28 00:40:43;;;;;;;7.03;3.00;;;16.80;99.90;;;;;;5033855;28;20203;-84
2023/06/28 00:43:10;;;;;;;6.70;3.15;;;16.70;99.90;;;;;;5033577;28;20525;-84
2023/06/28 00:45:37;;;;;;;7.00;3.30;;;16.70;99.90;;;;;;5035044;28;20286;-86
2023/06/28 00:48:04;;;;;;;3.85;2.85;;;16.70;99.90;;;;;;5026535;28;20654;-87
2023/06/28 00:50:32;;;;;;;3.72;2.90;;;16.70;99.90;;;;;;5014884;28;20261;-85
2023/06/28 00:52:59;;;;;;;5.80;2.63;;;16.70;99.90;;;;;;5014865;28;20246;-89
2023/06/28 00:55:26;;;;;;;5.35;2.97;;;16.60;99.90;;;;;;5014105;28;20286;-86
2023/06/28 00:57:54;;;;;;;6.60;2.78;;;16.70;99.90;;;;;;5014558;28;20210;-88
2023/06/28 01:00:22;;;;;;;5.07;3.00;;;16.60;99.90;;;;;;5014655;28;20204;-88
2023/06/28 01:02:48;;;;;;;5.25;3.08;;;16.60;99.90;;;;;;5016972;28;20195;-88
2023/06/28 01:05:19;;;;;;;8.23;3.25;;;16.60;99.90;;;;;;5018022;28;20249;-86
2023/06/28 01:07:48;;;;;;;5.20;2.85;;;16.70;99.90;;;;;;5017970;28;20199;-89
2023/06/28 01:31:04;;;;;;;3.60;2.87;;;16.60;99.90;;;;;;5014995;28;20287;-82
2023/06/28 01:33:30;;;;;;;5.40;2.72;;;16.60;99.90;;;;;;5016593;28;20289;-82
2023/06/28 01:35:58;;;;;;;4.85;3.05;;;16.60;99.90;;;;;;5016405;28;20233;-85
2023/06/28 01:38:28;;;;;;;6.80;2.90;;;16.60;99.90;;;;;;5017279;28;20202;-84
2023/06/28 01:44:21;;;;;;;5.32;2.80;;;16.60;99.90;;;;;;5018652;28;20249;-87
2023/06/28 01:46:51;;;;;;;5.03;2.83;;;16.60;99.90;;;;;;5035066;28;20228;-89
2023/06/28 01:49:18;;;;;;;5.70;3.40;;;16.60;99.90;;;;;;5037562;28;20218;-91
2023/06/28 01:51:45;;;;;;;4.75;3.10;;;16.60;99.90;;;;;;5037305;28;20587;-90
2023/06/28 01:54:12;;;;;;;4.63;3.13;;;16.60;99.90;;;;;;5029709;28;20213;-90
2023/06/28 01:56:39;;;;;;;5.07;3.22;;;16.60;99.90;;;;;;5017243;28;20302;-89
2023/06/28 01:59:06;;;;;;;5.70;3.40;;;16.60;99.90;;;;;;5018072;28;20294;-89
2023/06/28 02:01:33;;;;;;;9.63;3.90;;;16.60;99.90;;;;;;5017937;28;20234;-89
2023/06/28 02:04:01;;;;;;;6.38;3.10;;;16.50;99.90;;;;;;5032453;28;20591;-89
2023/06/28 02:06:28;;;;;;;9.25;3.60;;;16.50;99.90;;;;;;5037194;28;20226;-89
2023/06/28 02:08:55;;;;;;;9.38;3.55;;;16.50;99.90;;;;;;5037163;28;20483;-90
2023/06/28 02:11:23;;;;;;;9.60;3.78;;;16.50;99.90;;;;;;5033208;28;20307;-88
2023/06/28 02:13:49;;;;;;;8.45;4.07;;;16.50;99.90;;;;;;5016241;28;20229;-84
2023/06/28 02:16:16;;;;;;;4.82;3.30;;;16.50;99.90;;;;;;5016823;28;20227;-90
2023/06/28 02:18:45;;;;;;;6.40;3.65;;;16.50;99.90;;;;;;5021940;28;20198;-90
2023/06/28 02:21:14;;;;;;;5.07;3.15;;;16.50;99.90;;;;;;5036895;28;20502;-89
2023/06/28 02:23:41;;;;;;;6.80;3.60;;;16.40;99.90;;;;;;5037161;28;20202;-89
2023/06/28 02:26:08;;;;;;;5.97;3.40;;;16.40;99.90;;;;;;5036652;28;20234;-90
2023/06/28 02:28:35;;;;;;;7.07;4.32;;;16.40;99.90;;;;;;5036914;28;20253;-89
2023/06/28 02:31:02;;;;;;;4.47;3.50;;;16.40;99.90;;;;;;5036571;28;20256;-81
2023/06/28 02:33:28;;;;;;;6.68;4.10;;;16.40;99.90;;;;;;5035604;28;20266;-81
2023/06/28 02:35:55;;;;;;;9.10;4.18;;;16.40;99.90;;;;;;5028197;28;20285;-80
2023/06/28 02:38:23;;;;;;;7.35;3.92;;;16.40;99.90;;;;;;5014904;28;20207;-80
2023/06/28 02:40:51;;;;;;;6.22;3.90;;;16.30;99.90;;;;;;5014524;28;20563;-80
2023/06/28 02:43:18;;;;;;;7.72;4.30;;;16.30;99.90;;;;;;5016515;28;20222;-82
2023/06/28 02:45:45;;;;;;;7.85;4.22;;;16.30;99.90;;;;;;5034889;28;20834;-87
2023/06/28 02:48:11;;;;;;;6.50;4.10;;;16.30;99.90;;;;;;5034585;28;20318;-86
2023/06/28 02:50:38;;;;;;;5.10;3.72;;;16.30;99.90;;;;;;5034905;28;20209;-83
2023/06/28 02:53:05;;;;;;;6.43;3.80;;;16.30;99.90;;;;;;5034465;28;20285;-82
2023/06/28 02:55:34;;;;;;;5.45;3.63;;;16.30;99.90;;;;;;5034023;28;20271;-86
2023/06/28 02:58:00;;;;;;;6.97;4.07;;;16.20;99.90;;;;;;5015999;28;20622;-89
2023/06/28 03:00:27;;;;;;;6.03;3.85;;;16.20;99.90;;;;;;5015845;28;20257;-81
2023/06/28 03:02:54;;;;;;;9.00;4.10;;;16.20;99.90;;;;;;5014571;28;20286;-81
2023/06/28 03:05:21;;;;;;;7.38;3.95;;;16.20;99.90;;;;;;5035021;28;20514;-83
2023/06/28 03:07:48;;;;;;;4.95;3.42;;;16.20;99.90;;;;;;5035346;28;20324;-89
2023/06/28 03:10:15;;;;;;;7.55;4.07;;;16.20;99.90;;;;;;5034553;28;20549;-81
2023/06/28 03:12:43;;;;;;;6.93;4.25;;;16.20;99.90;;;;;;5035790;28;20233;-88
2023/06/28 03:15:11;;;;;;;5.20;3.87;;;16.20;99.90;;;;;;5034572;28;20256;-88
2023/06/28 03:17:38;;;;;;;8.85;4.35;;;16.20;99.90;;;;;;5028754;28;20211;-87
2023/06/28 03:20:06;;;;;;;8.45;4.95;;;16.20;99.90;;;;;;5015187;28;20491;-84
2023/06/28 03:22:33;;;;;;;8.45;4.55;;;16.20;99.90;;;;;;5014341;28;20195;-82
2023/06/28 03:25:00;;;;;;;12.32;4.80;;;16.20;99.90;;;;;;5014559;28;20261;-84
2023/06/28 03:27:26;;;;;;;8.37;5.17;;;16.10;99.90;;;;;;5014410;28;20211;-88
2023/06/28 03:29:55;;;;;;;6.53;4.87;;;16.10;99.90;;;;;;5014557;28;20246;-86
2023/06/28 03:32:22;;;;;;;8.20;5.13;;;16.10;99.90;;;;;;5014977;28;20251;-85
2023/06/28 03:34:49;;;;;;;9.57;5.63;;;16.10;99.90;;;;;;5015387;28;20246;-86
2023/06/28 03:37:16;;;;;;;8.38;5.40;;;16.10;99.90;;;;;;5014668;28;20223;-85
2023/06/28 03:39:43;;;;;;;6.95;4.95;;;16.10;99.90;;;;;;5015284;28;20258;-83
2023/06/28 03:42:10;;;;;;;11.88;5.93;;;16.10;99.90;;;;;;5015389;28;20200;-84
2023/06/28 03:44:37;;;;;;;8.15;5.43;;;16.10;99.90;;;;;;5014634;28;20211;-82
2023/06/28 03:47:07;;;;;;;9.17;5.10;;;16.10;99.90;;;;;;5014795;28;20502;-86
2023/06/28 03:49:33;;;;;;;13.18;6.07;;;16.10;99.90;;;;;;5015031;28;20203;-87
2023/06/28 03:52:00;;;;;;;7.55;5.65;;;16.10;99.90;;;;;;5019579;28;20199;-90
2023/06/28 03:54:27;;;;;;;8.63;6.03;;;16.10;99.90;;;;;;5035250;28;20203;-86
2023/06/28 03:56:54;;;;;;;7.17;5.17;;;16.10;99.90;;;;;;5035078;28;20230;-89
2023/06/28 03:59:21;;;;;;;8.50;5.97;;;16.10;99.90;;;;;;5033844;28;20230;-88
2023/06/28 04:01:48;;;;;;;7.30;5.73;;;16.10;99.90;;;;;;5015386;28;20210;-89
2023/06/28 04:04:17;;;;;;;9.93;6.67;;;16.00;99.90;;;;;;5014916;28;20632;-87
2023/06/28 04:06:45;;;;;;;12.10;6.57;;;16.00;99.90;;;;;;5014561;28;20195;-86
2023/06/28 04:09:11;;;;;;;17.10;6.95;;;16.00;99.90;;;;;;5014965;28;20533;-87
2023/06/28 04:11:38;;;;;;;12.40;6.73;;;16.00;99.90;;;;;;5015105;28;20214;-84
2023/06/28 04:14:05;;;;;;;10.55;6.40;;;16.00;99.90;;;;;;5014300;28;20213;-82
2023/06/28 04:16:32;;;;;;;11.33;7.10;;;16.10;99.90;;;;;;5014532;28;20909;-82
2023/06/28 04:19:00;;;;;;;12.50;7.60;;;16.00;99.90;;;;;;5014449;28;20488;-84
2023/06/28 04:21:28;;;;;;;12.57;7.20;;;16.00;99.90;;;;;;5014671;28;20200;-86
2023/06/28 04:23:55;;;;;;;10.27;6.97;;;16.00;99.90;;;;;;5014572;28;20204;-85
2023/06/28 04:26:22;;;;;;;10.90;6.95;;;16.00;99.90;;;;;;5014602;28;20231;-85
2023/06/28 04:28:49;;;;;;;11.88;7.53;;;16.00;99.90;;;;;;5014502;28;20207;-86
2023/06/28 04:31:16;;;;;;;8.23;6.18;;;16.10;99.90;;;;;;5014350;28;20231;-86
2023/06/28 04:33:43;;;;;;;8.75;7.65;;;16.10;99.90;;;;;;5013901;28;20223;-81
2023/06/28 04:36:11;;;;;;;9.90;6.80;;;16.10;99.90;;;;;;5032931;28;20227;-85
2023/06/28 04:38:41;;;;;;;12.07;8.25;;;16.10;99.90;;;;;;5033978;28;20584;-88
2023/06/28 04:41:08;;;;;;;10.27;8.18;;;16.10;99.90;;;;;;5018341;28;20549;-86
2023/06/28 04:43:40;;;;;;;11.33;8.50;;;16.20;99.90;;;;;;5018324;28;20199;-81
2023/06/28 04:46:11;;;;;;;12.17;8.97;;;16.20;99.90;;;;;;5017693;28;20215;-84
2023/06/28 04:48:38;;;;;;;11.30;7.97;;;16.20;99.90;;;;;;5017269;28;20214;-82
2023/06/28 04:51:05;;;;;;;12.90;8.45;;;16.20;99.90;;;;;;5017304;28;20234;-86
2023/06/28 04:53:32;;;;;;;10.63;7.70;;;16.30;99.90;;;;;;5017416;28;20210;-82
2023/06/28 04:56:01;;;;;;;10.43;8.60;;;16.30;99.90;;;;;;5016606;28;20314;-85
2023/06/28 04:58:28;;;;;;;11.00;9.30;;;16.30;99.90;;;;;;5017092;28;20286;-82
2023/06/28 05:00:57;;;;;;;13.50;10.00;;;16.30;99.90;;;;;;5017206;28;20242;-80
2023/06/28 05:03:26;;;;;;;10.80;9.63;;;16.30;99.90;;;;;;5016656;28;20215;-79
2023/06/28 05:05:53;;;;;;;13.73;9.32;;;16.30;99.90;;;;;;5026109;28;20588;-81
2023/06/28 05:08:20;;;;;;;11.15;9.43;;;16.30;99.90;;;;;;5036598;28;20224;-83
2023/06/28 05:10:47;;;;;;;9.32;8.35;;;16.30;99.90;;;;;;5036939;28;20257;-81
2023/06/28 05:13:15;;;;;;;12.57;8.32;;;16.30;99.90;;;;;;5025265;28;20195;-82
2023/06/28 05:15:42;;;;;;;11.82;8.98;;;16.30;99.90;;;;;;5016301;28;20620;-83
2023/06/28 05:18:09;;;;;;;15.27;10.38;;;16.40;99.90;;;;;;5016734;28;20232;-80
2023/06/28 05:20:36;;;;;;;12.65;10.82;;;16.40;99.90;;;;;;5017086;28;20219;-82
2023/06/28 05:23:10;;;;;;;15.00;11.05;;;16.40;99.90;;;;;;5015947;28;20196;-83
2023/06/28 05:25:37;;;;;;;16.17;10.60;;;16.40;99.90;;;;;;5016285;28;20494;-83
2023/06/28 05:28:05;;;;;;;14.63;9.82;;;16.40;99.90;;;;;;5016098;28;20575;-82
2023/06/28 05:30:33;;;;;;;12.95;10.50;;;16.40;99.90;;;;;;5016986;28;20241;-86
2023/06/28 05:33:02;;;;;;;15.35;10.88;;;16.50;99.90;;;;;;5016712;28;20310;-84
2023/06/28 05:35:30;;;;;;;15.27;11.30;;;16.50;99.90;;;;;;5034618;28;20218;-87
2023/06/28 05:37:57;;;;;;;15.65;11.95;;;16.50;99.90;;;;;;5036834;28;20246;-86
2023/06/28 05:40:24;;;;;;;12.95;10.48;;;16.50;99.90;;;;;;5031041;28;20265;-86
2023/06/28 05:42:51;;;;;;;13.07;10.93;;;16.50;99.90;;;;;;5015943;28;20706;-85
2023/06/28 05:45:18;;;;;;;15.15;10.68;;;16.60;99.90;;;;;;5015986;28;20659;-86
2023/06/28 05:47:47;;;;;;;18.15;11.93;;;16.60;99.90;;;;;;5015547;28;20295;-84
2023/06/28 05:50:15;;;;;;;14.40;11.38;;;16.70;99.90;;;;;;5017402;28;20246;-86
2023/06/28 05:52:42;;;;;;;14.30;11.35;;;16.70;99.90;;;;;;5020493;28;20213;-87
2023/06/28 05:55:10;;;;;;;15.43;12.00;;;16.70;99.90;;;;;;5037276;28;20297;-87
2023/06/28 05:57:36;;;;;;;12.55;10.23;;;16.80;99.90;;;;;;5028696;28;20225;-86
2023/06/28 06:00:04;;;;;;;16.67;12.95;;;16.80;99.90;;;;;;5017362;28;20192;-86
2023/06/28 06:02:31;;;;;;;13.68;10.45;;;16.90;99.90;;;;;;5017307;28;20227;-85
2023/06/28 06:05:01;;;;;;;19.63;12.75;;;16.90;99.90;;;;;;5017715;28;20235;-89
2023/06/28 06:07:28;;;;;;;13.82;11.43;;;16.90;99.90;;;;;;5017163;28;20754;-89
2023/06/28 06:09:56;;;;;;;13.88;11.23;;;17.00;99.90;;;;;;5037160;28;20209;-89
2023/06/28 06:12:23;;;;;;;14.60;9.75;;;17.00;99.90;;;;;;5036599;28;20281;-89
2023/06/28 06:14:51;;;;;;;18.25;11.52;;;17.00;99.90;;;;;;5036988;28;20199;-89
2023/06/28 06:17:18;;;;;;;14.65;12.05;;;17.00;99.90;;;;;;5036400;28;20249;-89
2023/06/28 06:19:45;;;;;;;14.88;11.18;;;17.00;99.90;;;;;;5036423;28;20229;-89
2023/06/28 06:22:14;;;;;;;13.60;11.13;;;17.00;99.90;;;;;;5037025;28;20198;-88
2023/06/28 06:24:41;;;;;;;11.38;10.10;;;17.00;99.90;;;;;;5036585;28;20601;-88
2023/06/28 06:27:09;;;;;;;17.70;12.32;;;17.10;99.90;;;;;;5036761;28;20198;-90
2023/06/28 06:29:36;;;;;;;14.35;10.40;;;17.10;99.90;;;;;;5036692;28;20226;-89
2023/06/28 06:32:03;;;;;;;21.27;11.85;;;17.10;99.90;;;;;;5036317;28;20254;-89
2023/06/28 06:34:30;;;;;;;15.52;11.00;;;17.10;99.90;;;;;;5036481;28;20245;-89
2023/06/28 06:36:58;;;;;;;12.85;9.73;;;17.10;99.90;;;;;;5036586;28;20252;-88
2023/06/28 06:39:26;;;;;;;21.27;12.23;;;17.20;99.90;;;;;;5036212;28;20755;-88
2023/06/28 06:41:53;;;;;;;14.02;10.40;;;17.20;99.90;;;;;;5036160;28;20541;-87
2023/06/28 06:44:20;;;;;;;12.13;9.32;;;17.20;99.90;;;;;;5037062;28;20206;-87
2023/06/28 06:46:47;;;;;;;12.65;8.73;;;17.20;99.90;;;;;;5036546;28;20199;-86
2023/06/28 06:49:18;;;;;;;13.80;9.70;;;17.20;99.90;;;;;;5036402;28;20218;-88
2023/06/28 06:51:46;;;;;;;17.65;11.25;;;17.30;99.90;;;;;;5030103;28;20203;-81
2023/06/28 06:54:13;;;;;;;13.70;10.57;;;17.40;99.90;;;;;;5016584;28;20199;-88
2023/06/28 06:56:41;;;;;;;15.73;10.13;;;17.40;99.90;;;;;;5016388;28;20254;-87
2023/06/28 06:59:08;;;;;;;10.75;8.90;;;17.40;99.90;;;;;;5015910;28;20207;-87
2023/06/28 07:01:35;;;;;;;18.35;10.20;;;17.40;99.90;;;;;;5016243;28;20223;-87
2023/06/28 07:04:02;;;;;;;15.00;9.95;;;17.40;99.90;;;;;;5016538;28;20282;-87
2023/06/28 07:06:29;;;;;;;17.38;10.82;;;17.50;99.90;;;;;;5016263;28;20261;-81
2023/06/28 07:08:57;;;;;;;14.13;9.63;;;17.50;99.90;;;;;;5014387;28;20206;-87
2023/06/28 07:11:25;;;;;;;19.80;11.60;;;17.50;99.90;;;;;;5024053;28;20209;-88
2023/06/28 07:13:54;;;;;;;15.75;10.10;;;17.60;99.90;;;;;;5034514;28;20203;-84
2023/06/28 07:16:20;;;;;;;11.00;9.27;;;17.60;99.90;;;;;;5015631;28;20302;-81
2023/06/28 07:18:47;;;;;;;16.92;10.95;;;17.70;99.90;;;;;;5014674;28;20265;-80
2023/06/28 07:21:15;;;;;;;16.42;10.85;;;17.70;99.90;;;;;;5014970;28;20200;-85
2023/06/28 07:23:42;;;;;;;12.30;9.90;;;17.80;99.90;;;;;;5015529;28;20203;-88
2023/06/28 07:26:09;;;;;;;10.63;8.90;;;17.80;99.90;;;;;;5027089;28;20510;-84
2023/06/28 07:28:36;;;;;;;18.20;12.10;;;17.80;99.90;;;;;;5034777;28;20198;-87
2023/06/28 07:31:04;;;;;;;16.52;10.43;;;17.90;99.90;;;;;;5016794;28;20250;-86
2023/06/28 07:33:31;;;;;;;19.58;12.40;;;17.90;99.90;;;;;;5015322;28;20266;-84
2023/06/28 07:35:58;;;;;;;18.67;13.02;;;18.00;99.90;;;;;;5016058;28;20245;-85
2023/06/28 07:38:25;;;;;;;17.00;12.15;;;18.00;99.90;;;;;;5015485;28;20582;-84
2023/06/28 07:40:53;;;;;;;17.92;11.30;;;18.00;99.90;;;;;;5015356;28;20286;-84
2023/06/28 07:43:21;;;;;;;17.42;11.98;;;18.10;99.90;;;;;;5014979;28;20656;-86
2023/06/28 07:45:47;;;;;;;17.08;12.02;;;18.10;99.90;;;;;;5029831;28;20284;-86
2023/06/28 07:48:16;;;;;;;18.10;12.57;;;18.10;99.90;;;;;;5035267;28;20274;-86
2023/06/28 07:50:43;;;;;;;14.68;10.90;;;18.20;99.90;;;;;;5035454;28;20285;-84
2023/06/28 07:53:10;;;;;;;22.30;13.27;;;18.20;99.90;;;;;;5035068;28;20210;-85
2023/06/28 07:55:38;;;;;;;18.63;11.90;;;18.30;99.90;;;;;;5035045;28;20222;-84
2023/06/28 07:58:05;;;;;;;20.02;11.95;;;18.30;99.90;;;;;;5019522;28;20237;-84
2023/06/28 08:00:32;;;;;;;12.35;10.07;;;18.30;99.90;;;;;;5015457;28;20230;-85
2023/06/28 08:02:59;;;;;;;15.82;10.60;;;18.40;99.90;;;;;;5015129;28;20239;-85
2023/06/28 08:05:29;;;;;;;18.63;12.60;;;18.40;99.90;;;;;;5015186;28;20196;-85
2023/06/28 08:07:56;;;;;;;21.48;14.65;;;18.50;99.90;;;;;;5015355;28;20219;-83
2023/06/28 08:10:25;;;;;;;18.10;11.27;;;18.50;99.90;;;;;;5015986;28;20234;-85
2023/06/28 08:12:52;;;;;;;12.90;9.88;;;18.50;99.90;;;;;;5018957;28;20659;-85
2023/06/28 08:15:19;;;;;;;13.38;11.38;;;18.60;99.90;;;;;;5019288;28;20505;-86
2023/06/28 08:17:47;;;;;;;18.55;12.90;;;18.60;99.90;;;;;;5018895;28;20229;-85
2023/06/28 08:20:14;;;;;;;17.30;11.85;;;18.60;99.90;;;;;;5019084;28;20708;-85
2023/06/28 08:22:42;;;;;;;15.35;12.30;;;18.70;99.90;;;;;;5019356;28;20608;-85
2023/06/28 08:25:10;;;;;;;19.83;12.55;;;18.70;99.90;;;;;;5001593;28;20266;-86
2023/06/28 08:27:37;;;;;;;18.17;11.90;;;18.70;99.90;;;;;;5036971;28;20268;-86
2023/06/28 08:30:06;;;;;;;21.17;12.52;;;18.70;99.90;;;;;;5038974;28;20229;-86
2023/06/28 08:32:34;;;;;;;22.15;12.20;;;18.70;99.90;;;;;;5029591;28;20258;-85
2023/06/28 08:35:02;;;;;;;17.02;11.32;;;18.70;99.90;;;;;;5018967;28;20201;-86
2023/06/28 08:37:31;;;;;;;19.27;12.00;;;18.80;99.90;;;;;;5019177;28;20255;-85
2023/06/28 08:40:00;;;;;;;16.85;11.43;;;18.80;99.90;;;;;;5018897;28;20267;-85
2023/06/28 08:42:29;;;;;;;16.65;10.48;;;18.80;99.90;;;;;;5018442;28;20699;-88
2023/06/28 08:44:58;;;;;;;18.23;12.25;;;18.80;99.90;;;;;;5018742;28;20214;-82
2023/06/28 08:47:28;;;;;;;18.05;10.73;;;18.80;99.90;;;;;;5018660;28;20316;-85
2023/06/28 08:49:56;;;;;;;16.25;11.90;;;18.90;99.90;;;;;;5018898;28;20207;-86
2023/06/28 08:52:24;;;;;;;13.60;10.45;;;18.90;99.90;;;;;;5018628;28;20196;-85
2023/06/28 08:54:52;;;;;;;17.38;12.30;;;19.00;99.90;;;;;;5018459;28;20611;-85
2023/06/28 08:57:21;;;;;;;15.52;11.02;;;19.10;99.90;;;;;;5018948;28;20229;-84
2023/06/28 08:59:48;;;;;;;10.88;9.10;;;19.10;99.90;;;;;;5018299;28;20212;-85
2023/06/28 09:02:18;;;;;;;13.80;10.77;;;19.20;99.90;;;;;;5018164;28;20287;-85
2023/06/28 09:04:46;;;;;;;14.60;12.45;;;19.20;99.90;;;;;;5018233;28;20211;-86
2023/06/28 09:07:15;;;;;;;17.90;11.65;;;19.20;99.90;;;;;;5017755;28;20196;-87
2023/06/28 09:09:44;;;;;;;19.30;12.25;;;19.20;99.90;;;;;;5017914;28;20261;-84
2023/06/28 09:12:12;;;;;;;20.10;12.98;;;19.20;99.90;;;;;;5018162;28;20223;-87
2023/06/28 09:14:40;;;;;;;18.05;10.88;;;19.20;99.90;;;;;;5018228;28;20241;-89
2023/06/28 09:17:07;;;;;;;20.63;12.70;;;19.20;99.90;;;;;;5017918;28;20203;-88
2023/06/28 09:19:34;;;;;;;17.83;11.57;;;19.20;99.90;;;;;;5017583;28;20302;-80
2023/06/28 09:22:07;;;;;;;16.48;12.05;;;19.20;99.90;;;;;;5026155;28;20286;-82
2023/06/28 09:24:34;;;;;;;17.70;12.00;;;19.30;99.90;;;;;;5036361;28;20205;-86
2023/06/28 09:27:03;;;;;;;17.50;11.18;;;19.40;99.90;;;;;;5035649;28;20199;-82
2023/06/28 09:29:30;;;;;;;18.90;11.75;;;19.50;99.90;;;;;;5036424;28;20249;-81
2023/06/28 09:32:00;;;;;;;17.58;11.73;;;19.60;99.90;;;;;;5023263;28;20275;-84
2023/06/28 09:34:27;;;;;;;17.25;10.95;;;19.70;99.90;;;;;;5016544;28;20585;-82
2023/06/28 09:36:55;;;;;;;19.42;11.45;;;19.90;99.90;;;;;;5015909;28;20215;-81
2023/06/28 09:39:22;;;;;;;17.25;10.77;;;19.90;99.90;;;;;;5016343;28;20223;-83
2023/06/28 09:41:50;;;;;;;13.30;11.43;;;19.90;99.90;;;;;;5016069;28;20195;-83
2023/06/28 09:44:28;;;;;;;18.17;12.73;;;19.90;99.90;;;;;;5015859;28;20191;-83
2023/06/28 09:47:02;;;;;;;18.77;11.43;;;19.90;99.90;;;;;;5016596;28;20198;-83
2023/06/28 09:49:29;;;;;;;18.17;11.65;;;19.90;99.90;;;;;;5015796;28;20225;-82
2023/06/28 09:51:59;;;;;;;19.75;12.13;;;20.00;99.90;;;;;;5015959;28;20670;-81
2023/06/28 09:54:33;;;;;;;16.95;10.90;;;20.00;99.90;;;;;;5016160;28;20242;-83
2023/06/28 09:57:01;;;;;;;20.85;11.73;;;20.10;99.90;;;;;;5017029;28;20278;-89
2023/06/28 09:59:30;;;;;;;15.15;10.18;;;20.20;99.90;;;;;;5016844;28;20249;-81
2023/06/28 10:01:59;;;;;;;15.75;10.00;;;20.30;99.90;;;;;;5016558;28;20196;-84
2023/06/28 10:04:29;;;;;;;20.25;10.02;;;20.50;99.90;;;;;;5015344;28;20198;-90
2023/06/28 10:07:02;;;;;;;16.98;9.00;;;20.60;99.90;;;;;;5015792;28;20207;-80
2023/06/28 10:09:33;;;;;;;18.40;10.00;;;20.70;99.90;;;;;;5016596;28;20200;-82
2023/06/28 10:12:01;;;;;;;17.75;10.35;;;20.90;99.90;;;;;;5015904;28;20538;-88
2023/06/28 10:14:31;;;;;;;17.45;10.63;;;21.00;99.90;;;;;;5016485;28;20215;-89
2023/06/28 10:17:00;;;;;;;16.15;9.48;;;21.10;99.90;;;;;;5016142;28;20226;-82
2023/06/28 10:19:31;;;;;;;15.02;8.40;;;21.10;99.90;;;;;;5015927;28;20324;-85
2023/06/28 10:21:58;;;;;;;21.35;10.55;;;21.20;99.90;;;;;;5016025;28;20200;-81
2023/06/28 10:24:29;;;;;;;17.10;10.13;;;21.40;99.90;;;;;;5016904;28;20204;-83
2023/06/28 10:26:56;;;;;;;16.67;9.70;;;21.60;99.90;;;;;;5035806;28;20202;-90
2023/06/28 10:29:23;;;;;;;21.33;10.32;;;21.70;99.90;;;;;;5036017;28;20198;-87
2023/06/28 10:31:50;;;;;;;15.00;8.80;;;21.70;99.90;;;;;;5035409;28;20265;-84
2023/06/28 10:34:17;;;;;;;16.33;9.02;;;21.80;99.90;;;;;;5034949;28;20247;-84
2023/06/28 10:36:46;;;;;;;16.58;8.27;;;21.80;99.90;;;;;;5035800;28;20236;-86
2023/06/28 10:39:13;;;;;;;18.73;9.18;;;21.90;99.90;;;;;;5035642;28;20276;-88
2023/06/28 10:41:40;;;;;;;15.70;8.63;;;21.90;99.90;;;;;;5016378;28;20639;-88
2023/06/28 10:44:07;;;;;;;18.35;9.77;;;21.90;99.90;;;;;;5023169;28;20277;-88
2023/06/28 10:46:36;;;;;;;16.33;9.68;;;21.90;99.90;;;;;;5036538;28;20205;-85
2023/06/28 10:49:03;;;;;;;16.85;8.95;;;21.90;99.90;;;;;;5023286;28;20270;-87
2023/06/28 10:51:32;;;;;;;22.42;10.15;;;22.00;99.90;;;;;;5016260;28;20233;-86
2023/06/28 10:54:12;;;;;;;15.40;8.57;;;22.00;99.90;;;;;;5016452;28;20592;-90
2023/06/28 10:56:51;;;;;;;15.70;8.60;;;22.10;99.90;;;;;;5093044;28;20871;-85
2023/06/28 10:59:18;;;;;;;12.13;8.18;;;22.20;99.90;;;;;;5075359;28;20499;-87
2023/06/28 11:01:55;;;;;;;19.08;10.40;;;22.30;99.90;;;;;;5072933;28;20201;-87
2023/06/28 11:04:25;;;;;;;13.93;8.65;;;22.30;99.90;;;;;;5072583;28;20201;-84
2023/06/28 11:07:14;;;;;;;16.73;9.00;;;22.40;99.90;;;;;;5072219;28;20202;-89
2023/06/28 11:09:41;;;;;;;17.85;9.60;;;22.60;99.90;;;;;;5071787;28;20232;-90
2023/06/28 11:12:14;;;;;;;20.05;8.65;;;22.70;99.90;;;;;;5072537;28;20201;-89
2023/06/28 11:14:42;;;;;;;23.98;10.77;;;22.80;99.90;;;;;;5072601;28;20206;-88
2023/06/28 11:17:15;;;;;;;13.15;9.25;;;22.80;99.90;;;;;;5072588;28;20296;-83
2023/06/28 11:19:43;;;;;;;15.57;8.95;;;22.90;99.90;;;;;;5072527;28;20196;-82
2023/06/28 11:22:10;;;;;;;18.95;9.55;;;23.00;99.90;;;;;;5071960;28;20201;-89
2023/06/28 11:24:44;;;;;;;15.25;9.02;;;23.10;99.90;;;;;;5072616;28;20198;-90
2023/06/28 11:27:14;;;;;;;19.98;9.35;;;23.10;99.90;;;;;;5072061;28;20254;-84
2023/06/28 11:29:54;;;;;;;12.68;9.13;;;23.30;99.90;;;;;;5071538;28;20212;-89
2023/06/28 11:32:25;;;;;;;19.20;10.15;;;23.40;99.90;;;;;;5072902;28;20236;-83
2023/06/28 11:34:53;;;;;;;13.88;8.70;;;23.60;99.90;;;;;;5071376;28;20524;-83
2023/06/28 11:37:22;;;;;;;16.77;9.98;;;23.70;99.90;;;;;;5070825;28;20206;-88
2023/06/28 11:39:50;;;;;;;18.30;10.48;;;23.90;99.90;;;;;;5072167;28;20236;-86
2023/06/28 11:42:18;;;;;;;15.88;9.75;;;23.90;99.90;;;;;;5071170;28;20205;-85
2023/06/28 11:44:47;;;;;;;18.92;9.57;;;24.00;99.90;;;;;;5072673;28;20239;-89
2023/06/28 11:47:14;;;;;;;18.02;10.13;;;24.10;99.90;;;;;;5073003;28;20229;-83
2023/06/28 11:49:42;;;;;;;18.30;9.82;;;24.10;99.90;;;;;;5072930;28;20199;-86
2023/06/28 11:52:10;;;;;;;16.17;9.55;;;24.10;99.90;;;;;;5072885;28;20201;-86
2023/06/28 11:54:37;;;;;;;15.63;9.60;;;24.20;99.90;;;;;;5072169;28;20215;-87
2023/06/28 11:57:04;;;;;;;17.98;10.82;;;24.40;99.90;;;;;;5072177;28;20201;-85
2023/06/28 11:59:34;;;;;;;15.73;9.68;;;24.50;99.90;;;;;;5072995;28;20422;-87
2023/06/28 12:02:03;;;;;;;19.30;11.40;;;24.50;99.90;;;;;;5092150;28;20235;-87
2023/06/28 12:04:32;;;;;;;13.48;9.40;;;24.50;99.90;;;;;;5091969;28;20192;-86
2023/06/28 12:07:01;;;;;;;15.00;9.35;;;24.60;99.90;;;;;;5085930;28;20189;-86
2023/06/28 12:09:29;;;;;;;15.52;9.73;;;24.70;99.90;;;;;;5077124;28;20189;-85
2023/06/28 12:11:58;;;;;;;17.73;10.82;;;24.70;99.90;;;;;;5057358;28;20202;-84
2023/06/28 12:14:25;;;;;;;16.15;10.65;;;24.80;99.90;;;;;;5057106;28;20281;-85
2023/06/28 12:16:54;;;;;;;15.88;9.35;;;24.90;99.90;;;;;;5057508;28;20724;-89
2023/06/28 12:19:26;;;;;;;14.85;9.77;;;25.10;99.90;;;;;;5058577;28;20248;-86
2023/06/28 12:21:54;;;;;;;17.73;10.52;;;25.20;99.90;;;;;;5058296;28;20221;-85
2023/06/28 12:24:24;;;;;;;17.95;10.95;;;25.20;99.90;;;;;;5058648;28;20636;-88
2023/06/28 12:26:53;;;;;;;16.30;11.07;;;25.30;99.90;;;;;;5058320;28;20599;-86
2023/06/28 12:29:21;;;;;;;13.20;9.80;;;25.30;99.90;;;;;;5057891;28;20613;-88
2023/06/28 12:31:49;;;;;;;17.58;10.20;;;25.40;99.90;;;;;;5058074;28;20201;-91
2023/06/28 12:34:23;;;;;;;16.20;10.50;;;25.50;99.90;;;;;;5073166;28;20636;-89
2023/06/28 12:36:53;;;;;;;14.68;9.90;;;25.60;99.90;;;;;;5077788;28;20208;-88
2023/06/28 12:39:22;;;;;;;16.40;10.50;;;25.70;99.90;;;;;;5070703;28;20202;-89
2023/06/28 12:42:01;;;;;;;17.60;10.32;;;25.70;99.90;;;;;;5057351;28;20289;-89
2023/06/28 12:44:28;;;;;;;14.95;10.07;;;25.70;99.90;;;;;;5057506;28;20604;-89
2023/06/28 12:46:55;;;;;;;17.95;11.20;;;25.70;99.90;;;;;;5057211;28;20189;-87
2023/06/28 12:49:25;;;;;;;16.80;10.13;;;25.60;99.90;;;;;;5067175;28;20232;-91
2023/06/28 12:51:52;;;;;;;15.20;10.10;;;25.60;99.90;;;;;;5077149;28;20201;-90
2023/06/28 12:54:19;;;;;;;17.08;10.30;;;25.40;99.90;;;;;;5077124;28;20258;-88
2023/06/28 12:56:46;;;;;;;18.20;11.70;;;25.30;99.90;;;;;;5077061;28;20570;-89
2023/06/28 12:59:13;;;;;;;17.27;10.27;;;25.30;99.90;;;;;;5077392;28;20532;-91
2023/06/28 13:01:40;;;;;;;16.70;10.85;;;25.30;99.90;;;;;;5059173;28;20560;-88
2023/06/28 13:04:06;;;;;;;20.38;10.75;;;25.30;99.90;;;;;;5057653;28;20306;-88